SWA2061 KELP-KAUS
Flight info
| Callsign | SWA2061 |
|---|---|
| Flight time | N/A |
| Altitude | 39000 |
| Route | NEVUE3 FST DILLO LAIKS4 |
| Aircraft | B738/M-SADE2E3GIJ4RWZ/LB1D1 |
Departure
| Time | 2026-04-20 23:43 |
|---|---|
| Airport | El Paso International Airport (KELP) |
Arrival
| Time | N/A |
|---|---|
| Airport | Austin Bergstrom International Airport (KAUS) |
| Time | Latitude | Longitude | Altitude | Speed | Heading |
|---|---|---|---|---|---|
| 2026-04-20 23:43 | 31.69189 | -106.16186 | 7554 ft | 283 kts | 137° |
| 2026-04-20 23:43 | 31.67736 | -106.14405 | 8603 ft | 285 kts | 133° |
| 2026-04-20 23:43 | 31.66458 | -106.12616 | 9549 ft | 288 kts | 131° |
| 2026-04-20 23:44 | 31.65177 | -106.10767 | 10371 ft | 294 kts | 131° |
| 2026-04-20 23:44 | 31.63862 | -106.08885 | 11273 ft | 296 kts | 131° |
| 2026-04-20 23:44 | 31.62553 | -106.07041 | 12062 ft | 301 kts | 132° |
| 2026-04-20 23:44 | 31.61189 | -106.05143 | 12910 ft | 306 kts | 132° |
| 2026-04-20 23:45 | 31.59782 | -106.03198 | 13749 ft | 310 kts | 132° |
| 2026-04-20 23:45 | 31.58397 | -106.01284 | 14442 ft | 316 kts | 132° |
| 2026-04-20 23:45 | 31.57025 | -105.99234 | 15120 ft | 324 kts | 128° |
| 2026-04-20 23:45 | 31.55750 | -105.97019 | 15815 ft | 331 kts | 126° |
| 2026-04-20 23:46 | 31.54487 | -105.94744 | 16570 ft | 335 kts | 126° |
| 2026-04-20 23:46 | 31.53202 | -105.92445 | 17360 ft | 339 kts | 126° |
| 2026-04-20 23:46 | 31.51888 | -105.90135 | 18099 ft | 344 kts | 127° |
| 2026-04-20 23:46 | 31.50534 | -105.87791 | 18714 ft | 350 kts | 127° |
| 2026-04-20 23:47 | 31.49159 | -105.85425 | 19401 ft | 352 kts | 127° |
| 2026-04-20 23:47 | 31.47794 | -105.83034 | 20095 ft | 356 kts | 122° |
| 2026-04-20 23:47 | 31.46969 | -105.80262 | 20589 ft | 368 kts | 101° |
| 2026-04-20 23:47 | 31.46597 | -105.77317 | 21500 ft | 363 kts | 98° |
| 2026-04-20 23:48 | 31.46230 | -105.74371 | 22100 ft | 369 kts | 100° |
| 2026-04-20 23:48 | 31.45748 | -105.71402 | 22620 ft | 376 kts | 103° |
| 2026-04-20 23:48 | 31.45181 | -105.68349 | 23306 ft | 379 kts | 103° |
| 2026-04-20 23:48 | 31.44605 | -105.65327 | 23915 ft | 381 kts | 103° |
| 2026-04-20 23:49 | 31.44034 | -105.62284 | 24468 ft | 385 kts | 104° |
| 2026-04-20 23:49 | 31.43468 | -105.59201 | 24967 ft | 389 kts | 103° |
| 2026-04-20 23:49 | 31.42910 | -105.56099 | 25467 ft | 392 kts | 103° |
| 2026-04-20 23:49 | 31.42352 | -105.52951 | 25984 ft | 395 kts | 103° |
| 2026-04-20 23:50 | 31.41797 | -105.49784 | 26517 ft | 398 kts | 103° |
| 2026-04-20 23:50 | 31.41241 | -105.46608 | 27082 ft | 399 kts | 103° |
| 2026-04-20 23:50 | 31.40690 | -105.43448 | 27765 ft | 396 kts | 103° |
| 2026-04-20 23:50 | 31.40139 | -105.40291 | 28367 ft | 396 kts | 103° |
| 2026-04-20 23:51 | 31.39581 | -105.37102 | 28644 ft | 405 kts | 103° |
| 2026-04-20 23:51 | 31.39011 | -105.33854 | 29125 ft | 407 kts | 104° |
| 2026-04-20 23:51 | 31.38445 | -105.30631 | 29844 ft | 403 kts | 104° |
| 2026-04-20 23:51 | 31.37877 | -105.27399 | 30065 ft | 411 kts | 104° |
| 2026-04-20 23:52 | 31.37301 | -105.24125 | 29989 ft | 408 kts | 104° |
| 2026-04-20 23:52 | 31.36178 | -105.17742 | 30028 ft | 397 kts | 104° |
| 2026-04-20 23:53 | 31.35052 | -105.11390 | 30039 ft | 401 kts | 104° |
| 2026-04-20 23:53 | 31.33908 | -105.04962 | 30160 ft | 410 kts | 104° |
| 2026-04-20 23:53 | 31.33324 | -105.01690 | 30620 ft | 410 kts | 104° |
| 2026-04-20 23:54 | 31.32745 | -104.98434 | 31175 ft | 407 kts | 104° |
| 2026-04-20 23:54 | 31.32169 | -104.95201 | 31666 ft | 407 kts | 104° |
| 2026-04-20 23:54 | 31.31590 | -104.91962 | 32067 ft | 409 kts | 104° |
| 2026-04-20 23:54 | 31.31002 | -104.88680 | 32093 ft | 420 kts | 104° |
| 2026-04-20 23:55 | 31.30402 | -104.85337 | 32080 ft | 417 kts | 105° |
| 2026-04-20 23:55 | 31.29214 | -104.78711 | 32099 ft | 415 kts | 105° |
| 2026-04-20 23:55 | 31.28608 | -104.75359 | 32135 ft | 427 kts | 105° |
| 2026-04-20 23:56 | 31.27984 | -104.71923 | 32102 ft | 440 kts | 105° |
| 2026-04-20 23:56 | 31.27341 | -104.68381 | 32143 ft | 451 kts | 105° |
| 2026-04-20 23:56 | 31.26680 | -104.64747 | 32103 ft | 463 kts | 105° |
| 2026-04-20 23:56 | 31.26004 | -104.61025 | 32125 ft | 474 kts | 105° |
| 2026-04-20 23:57 | 31.25311 | -104.57209 | 32115 ft | 484 kts | 104° |
| 2026-04-20 23:57 | 31.23882 | -104.49362 | 32077 ft | 503 kts | 104° |
| 2026-04-20 23:58 | 31.22428 | -104.41392 | 32072 ft | 518 kts | 104° |
| 2026-04-20 23:58 | 31.20899 | -104.33057 | 32083 ft | 529 kts | 104° |
| 2026-04-20 23:59 | 31.19352 | -104.24649 | 32075 ft | 528 kts | 104° |
| 2026-04-20 23:59 | 31.17807 | -104.16277 | 32078 ft | 525 kts | 104° |
| 2026-04-21 00:00 | 31.16259 | -104.07944 | 32073 ft | 525 kts | 105° |
| 2026-04-21 00:00 | 31.14705 | -103.99622 | 32086 ft | 525 kts | 105° |
| 2026-04-21 00:01 | 31.13148 | -103.91288 | 32082 ft | 525 kts | 105° |
| 2026-04-21 00:01 | 31.11847 | -103.84358 | 32082 ft | 525 kts | 105° |
| 2026-04-21 00:02 | 31.10278 | -103.76020 | 32076 ft | 522 kts | 105° |
| 2026-04-21 00:02 | 31.08723 | -103.67794 | 32080 ft | 523 kts | 105° |
| 2026-04-21 00:03 | 31.07138 | -103.59445 | 32061 ft | 523 kts | 105° |
| 2026-04-21 00:03 | 31.05558 | -103.51157 | 32081 ft | 525 kts | 105° |
| 2026-04-21 00:04 | 31.03963 | -103.42830 | 32085 ft | 526 kts | 105° |
| 2026-04-21 00:04 | 31.02361 | -103.34493 | 32081 ft | 527 kts | 105° |
| 2026-04-21 00:05 | 31.00759 | -103.26163 | 32088 ft | 527 kts | 105° |
| 2026-04-21 00:05 | 30.99139 | -103.17782 | 32100 ft | 527 kts | 105° |
| 2026-04-21 00:06 | 30.97526 | -103.09455 | 32099 ft | 524 kts | 105° |
| 2026-04-21 00:06 | 30.95920 | -103.01199 | 32118 ft | 522 kts | 105° |
| 2026-04-21 00:07 | 30.94559 | -102.92865 | 32105 ft | 525 kts | 99° |
| 2026-04-21 00:07 | 30.94075 | -102.84375 | 32126 ft | 527 kts | 92° |
| 2026-04-21 00:08 | 30.94230 | -102.75814 | 32138 ft | 529 kts | 89° |
| 2026-04-21 00:08 | 30.94451 | -102.67267 | 32143 ft | 527 kts | 91° |
| 2026-04-21 00:09 | 30.94401 | -102.58744 | 32168 ft | 526 kts | 93° |
| 2026-04-21 00:09 | 30.94181 | -102.50215 | 32146 ft | 527 kts | 94° |
| 2026-04-21 00:10 | 30.93930 | -102.41688 | 32154 ft | 527 kts | 94° |
| 2026-04-21 00:10 | 30.93696 | -102.33174 | 32166 ft | 525 kts | 94° |
| 2026-04-21 00:11 | 30.93471 | -102.24674 | 32143 ft | 526 kts | 94° |
| 2026-04-21 00:11 | 30.93242 | -102.16151 | 32164 ft | 528 kts | 94° |
| 2026-04-21 00:12 | 30.93006 | -102.07586 | 32174 ft | 530 kts | 94° |
| 2026-04-21 00:12 | 30.92763 | -101.99010 | 32188 ft | 529 kts | 94° |
| 2026-04-21 00:13 | 30.92515 | -101.90453 | 32175 ft | 528 kts | 94° |
| 2026-04-21 00:13 | 30.92262 | -101.81915 | 32192 ft | 528 kts | 94° |
| 2026-04-21 00:14 | 30.92002 | -101.73343 | 32188 ft | 528 kts | 94° |
| 2026-04-21 00:14 | 30.91738 | -101.64806 | 32196 ft | 528 kts | 94° |
| 2026-04-21 00:15 | 30.91468 | -101.56252 | 32190 ft | 528 kts | 94° |
| 2026-04-21 00:15 | 30.91192 | -101.47708 | 32205 ft | 528 kts | 94° |
| 2026-04-21 00:16 | 30.90910 | -101.39161 | 32208 ft | 529 kts | 94° |
| 2026-04-21 00:16 | 30.90622 | -101.30606 | 32214 ft | 529 kts | 94° |
| 2026-04-21 00:17 | 30.90331 | -101.22076 | 32235 ft | 525 kts | 94° |
| 2026-04-21 00:17 | 30.90034 | -101.13566 | 32245 ft | 526 kts | 94° |
| 2026-04-21 00:18 | 30.89731 | -101.05063 | 32233 ft | 526 kts | 94° |
| 2026-04-21 00:18 | 30.89423 | -100.96551 | 32236 ft | 527 kts | 94° |
| 2026-04-21 00:19 | 30.89109 | -100.88034 | 32224 ft | 527 kts | 94° |
| 2026-04-21 00:19 | 30.88790 | -100.79524 | 32224 ft | 527 kts | 94° |
| 2026-04-21 00:20 | 30.88464 | -100.71001 | 32231 ft | 527 kts | 94° |
| 2026-04-21 00:20 | 30.88133 | -100.62484 | 32224 ft | 527 kts | 94° |
| 2026-04-21 00:21 | 30.87796 | -100.53962 | 32220 ft | 525 kts | 94° |
| 2026-04-21 00:21 | 30.87458 | -100.45519 | 32221 ft | 524 kts | 94° |
| 2026-04-21 00:22 | 30.87116 | -100.37106 | 31868 ft | 509 kts | 94° |
| 2026-04-21 00:22 | 30.86948 | -100.33015 | 31144 ft | 507 kts | 94° |
| 2026-04-21 00:22 | 30.86776 | -100.28907 | 30261 ft | 509 kts | 94° |
| 2026-04-21 00:22 | 30.86602 | -100.24781 | 29086 ft | 512 kts | 94° |
| 2026-04-21 00:23 | 30.86425 | -100.20631 | 27831 ft | 517 kts | 94° |
| 2026-04-21 00:23 | 30.86249 | -100.16483 | 28074 ft | 490 kts | 94° |
| 2026-04-21 00:23 | 30.86088 | -100.12644 | 28079 ft | 477 kts | 94° |
| 2026-04-21 00:24 | 30.85755 | -100.04946 | 28194 ft | 480 kts | 94° |
| 2026-04-21 00:24 | 30.85404 | -99.97041 | 28186 ft | 488 kts | 94° |
| 2026-04-21 00:25 | 30.85049 | -99.89104 | 28194 ft | 495 kts | 94° |
| 2026-04-21 00:25 | 30.84687 | -99.81084 | 28194 ft | 497 kts | 94° |
| 2026-04-21 00:26 | 30.84320 | -99.73047 | 28200 ft | 498 kts | 94° |
| 2026-04-21 00:26 | 30.83949 | -99.65012 | 28213 ft | 497 kts | 94° |
| 2026-04-21 00:27 | 30.83571 | -99.56978 | 28196 ft | 496 kts | 94° |
| 2026-04-21 00:27 | 30.83190 | -99.48982 | 28222 ft | 495 kts | 95° |
| 2026-04-21 00:27 | 30.83001 | -99.45029 | 28089 ft | 483 kts | 95° |
| 2026-04-21 00:28 | 30.82815 | -99.41150 | 27544 ft | 477 kts | 95° |
| 2026-04-21 00:28 | 30.82629 | -99.37313 | 26815 ft | 476 kts | 95° |
| 2026-04-21 00:28 | 30.82439 | -99.33474 | 26060 ft | 476 kts | 95° |
| 2026-04-21 00:28 | 30.82249 | -99.29637 | 25484 ft | 472 kts | 95° |
| 2026-04-21 00:29 | 30.82062 | -99.25859 | 24999 ft | 465 kts | 95° |
| 2026-04-21 00:29 | 30.81876 | -99.22124 | 24496 ft | 460 kts | 95° |
| 2026-04-21 00:29 | 30.81688 | -99.18366 | 23947 ft | 456 kts | 95° |
| 2026-04-21 00:29 | 30.81505 | -99.14747 | 23308 ft | 453 kts | 95° |
| 2026-04-21 00:30 | 30.81320 | -99.11104 | 22669 ft | 450 kts | 95° |
| 2026-04-21 00:30 | 30.81137 | -99.07512 | 22072 ft | 446 kts | 95° |
| 2026-04-21 00:30 | 30.80949 | -99.03861 | 21494 ft | 442 kts | 95° |
| 2026-04-21 00:30 | 30.80766 | -99.00302 | 20928 ft | 438 kts | 95° |
| 2026-04-21 00:31 | 30.80583 | -98.96777 | 20346 ft | 436 kts | 95° |
| 2026-04-21 00:31 | 30.80400 | -98.93280 | 19907 ft | 430 kts | 95° |
| 2026-04-21 00:31 | 30.80224 | -98.89891 | 19869 ft | 409 kts | 95° |
| 2026-04-21 00:31 | 30.80054 | -98.86636 | 19551 ft | 402 kts | 95° |
| 2026-04-21 00:32 | 30.79881 | -98.83376 | 19028 ft | 403 kts | 95° |
| 2026-04-21 00:32 | 30.79710 | -98.80175 | 18525 ft | 403 kts | 95° |
| 2026-04-21 00:32 | 30.79515 | -98.76883 | 18060 ft | 400 kts | 96° |
| 2026-04-21 00:32 | 30.79246 | -98.73691 | 17686 ft | 394 kts | 98° |
| 2026-04-21 00:33 | 30.78900 | -98.70542 | 17283 ft | 390 kts | 99° |
| 2026-04-21 00:33 | 30.78531 | -98.67434 | 16900 ft | 385 kts | 99° |
| 2026-04-21 00:33 | 30.78173 | -98.64363 | 16481 ft | 382 kts | 99° |
| 2026-04-21 00:33 | 30.77833 | -98.61315 | 16042 ft | 379 kts | 98° |
| 2026-04-21 00:34 | 30.77505 | -98.58278 | 15638 ft | 376 kts | 98° |
| 2026-04-21 00:34 | 30.77188 | -98.55269 | 15255 ft | 373 kts | 98° |
| 2026-04-21 00:34 | 30.76876 | -98.52298 | 14872 ft | 369 kts | 98° |
| 2026-04-21 00:34 | 30.76567 | -98.49348 | 14477 ft | 367 kts | 98° |
| 2026-04-21 00:35 | 30.76257 | -98.46408 | 14090 ft | 364 kts | 98° |
| 2026-04-21 00:35 | 30.75931 | -98.43503 | 13655 ft | 360 kts | 102° |
| 2026-04-21 00:35 | 30.75144 | -98.40778 | 13127 ft | 357 kts | 118° |
| 2026-04-21 00:35 | 30.74377 | -98.39062 | 12994 ft | 349 kts | 121° |
| 2026-04-21 00:36 | 30.73229 | -98.36602 | 12636 ft | 345 kts | 120° |
| 2026-04-21 00:36 | 30.72163 | -98.34107 | 12130 ft | 346 kts | 117° |
| 2026-04-21 00:36 | 30.71193 | -98.31551 | 11755 ft | 343 kts | 116° |
| 2026-04-21 00:36 | 30.70254 | -98.29022 | 11420 ft | 339 kts | 116° |
| 2026-04-21 00:37 | 30.69310 | -98.26526 | 11017 ft | 337 kts | 117° |
| 2026-04-21 00:37 | 30.68350 | -98.24039 | 10492 ft | 339 kts | 117° |
| 2026-04-21 00:37 | 30.67379 | -98.21564 | 10289 ft | 331 kts | 117° |
| 2026-04-21 00:37 | 30.66443 | -98.19188 | 10232 ft | 315 kts | 118° |
| 2026-04-21 00:38 | 30.65549 | -98.16928 | 10102 ft | 301 kts | 118° |
| 2026-04-21 00:38 | 30.64677 | -98.14729 | 9822 ft | 299 kts | 118° |
| 2026-04-21 00:38 | 30.63811 | -98.12551 | 9563 ft | 295 kts | 118° |
| 2026-04-21 00:38 | 30.62956 | -98.10401 | 9300 ft | 292 kts | 118° |
| 2026-04-21 00:39 | 30.62107 | -98.08266 | 9012 ft | 290 kts | 118° |
| 2026-04-21 00:39 | 30.61267 | -98.06153 | 8744 ft | 287 kts | 118° |
| 2026-04-21 00:39 | 30.60434 | -98.04057 | 8492 ft | 284 kts | 118° |
| 2026-04-21 00:39 | 30.59616 | -98.01998 | 8239 ft | 281 kts | 118° |
| 2026-04-21 00:40 | 30.58799 | -97.99944 | 8038 ft | 279 kts | 118° |
| 2026-04-21 00:40 | 30.57990 | -97.97914 | 8031 ft | 275 kts | 118° |
| 2026-04-21 00:40 | 30.57191 | -97.95910 | 8019 ft | 272 kts | 118° |
| 2026-04-21 00:40 | 30.56372 | -97.93983 | 7991 ft | 259 kts | 127° |
| 2026-04-21 00:41 | 30.55100 | -97.92678 | 8013 ft | 238 kts | 156° |
| 2026-04-21 00:41 | 30.53606 | -97.91889 | 8057 ft | 234 kts | 159° |
| 2026-04-21 00:41 | 30.52156 | -97.91101 | 7892 ft | 233 kts | 156° |
| 2026-04-21 00:41 | 30.50679 | -97.90252 | 7656 ft | 233 kts | 156° |
| 2026-04-21 00:42 | 30.49230 | -97.89419 | 7465 ft | 231 kts | 155° |
| 2026-04-21 00:42 | 30.47797 | -97.88601 | 7240 ft | 229 kts | 156° |
| 2026-04-21 00:42 | 30.46365 | -97.87784 | 6967 ft | 230 kts | 155° |
| 2026-04-21 00:42 | 30.44935 | -97.86971 | 6773 ft | 227 kts | 155° |
| 2026-04-21 00:43 | 30.43524 | -97.86173 | 6599 ft | 224 kts | 155° |
| 2026-04-21 00:43 | 30.42120 | -97.85377 | 6318 ft | 226 kts | 155° |
| 2026-04-21 00:43 | 30.40708 | -97.84577 | 6074 ft | 225 kts | 154° |
| 2026-04-21 00:43 | 30.39309 | -97.83788 | 5880 ft | 222 kts | 154° |
| 2026-04-21 00:44 | 30.37901 | -97.82992 | 5619 ft | 223 kts | 154° |
| 2026-04-21 00:44 | 30.36526 | -97.82215 | 5405 ft | 222 kts | 153° |
| 2026-04-21 00:44 | 30.35125 | -97.81423 | 5167 ft | 222 kts | 153° |
| 2026-04-21 00:45 | 30.32341 | -97.79849 | 5020 ft | 226 kts | 153° |
| 2026-04-21 00:45 | 30.30932 | -97.79054 | 4995 ft | 225 kts | 153° |
| 2026-04-21 00:45 | 30.29532 | -97.78265 | 5001 ft | 222 kts | 153° |
| 2026-04-21 00:45 | 30.28163 | -97.77497 | 4989 ft | 219 kts | 154° |
| 2026-04-21 00:46 | 30.26696 | -97.77033 | 4970 ft | 217 kts | 175° |
| 2026-04-21 00:46 | 30.25214 | -97.77067 | 5009 ft | 211 kts | 179° |
| 2026-04-21 00:46 | 30.23749 | -97.77084 | 5008 ft | 210 kts | 176° |
| 2026-04-21 00:46 | 30.22284 | -97.77052 | 4991 ft | 210 kts | 175° |
| 2026-04-21 00:47 | 30.20831 | -97.77012 | 5010 ft | 209 kts | 175° |
| 2026-04-21 00:47 | 30.19378 | -97.76971 | 4997 ft | 210 kts | 175° |
| 2026-04-21 00:47 | 30.17923 | -97.76883 | 4993 ft | 209 kts | 174° |
| 2026-04-21 00:47 | 30.16449 | -97.77027 | 4972 ft | 215 kts | 193° |
| 2026-04-21 00:48 | 30.15064 | -97.77631 | 5039 ft | 219 kts | 198° |
| 2026-04-21 00:48 | 30.13609 | -97.78318 | 5005 ft | 224 kts | 198° |
| 2026-04-21 00:48 | 30.12171 | -97.79000 | 5015 ft | 223 kts | 198° |
| 2026-04-21 00:48 | 30.10733 | -97.79680 | 5004 ft | 224 kts | 198° |
| 2026-04-21 00:49 | 30.09293 | -97.80361 | 5005 ft | 224 kts | 198° |
| 2026-04-21 00:49 | 30.07853 | -97.81043 | 4993 ft | 223 kts | 198° |
| 2026-04-21 00:49 | 30.06422 | -97.81719 | 5002 ft | 220 kts | 198° |
| 2026-04-21 00:49 | 30.05009 | -97.82390 | 5000 ft | 219 kts | 198° |
| 2026-04-21 00:50 | 30.03604 | -97.83058 | 5001 ft | 219 kts | 198° |
| 2026-04-21 00:50 | 30.02189 | -97.83727 | 5005 ft | 219 kts | 198° |
| 2026-04-21 00:50 | 30.00782 | -97.84396 | 5005 ft | 219 kts | 198° |
| 2026-04-21 00:50 | 29.99375 | -97.85069 | 5002 ft | 219 kts | 198° |
| 2026-04-21 00:51 | 29.97968 | -97.85743 | 5001 ft | 219 kts | 198° |
| 2026-04-21 00:51 | 29.96557 | -97.86419 | 5001 ft | 218 kts | 198° |
| 2026-04-21 00:51 | 29.95137 | -97.86911 | 4813 ft | 212 kts | 176° |
| 2026-04-21 00:51 | 29.93765 | -97.86448 | 4484 ft | 206 kts | 141° |
| 2026-04-21 00:52 | 29.92946 | -97.85154 | 4277 ft | 203 kts | 109° |
| 2026-04-21 00:52 | 29.92618 | -97.83581 | 4139 ft | 199 kts | 103° |
| 2026-04-21 00:52 | 29.92355 | -97.81990 | 3804 ft | 204 kts | 103° |
| 2026-04-21 00:52 | 29.92088 | -97.80377 | 3589 ft | 204 kts | 103° |